Kiyomaru — JK5234 — position and weather

sailwx.info

Track history (hours):
 
Tides and Currents Weather Stations Pressure Air Temp Water Temp Dewpoint Dewpoint Depression Visibility Wind Speed Wind Dir Waves Ship Positions

Kiyomaru

Last reported at 2018-Jun-22 03:00 UTC. Time now 2018-Jun-22 03:05 UTC.
Position N 34°43' E 135°17'.

Length 121 m; draft 4 m.

Type: Cargo ship. MMSI: 431400386.

Date/timePositionNaut miles runAvg speedWind from/ knotsBaromVisibWave heightAir tempDewpointWater temp
2018-Jun-22 03:00N 34°43' E 135°17'0 0.0
2018-Jun-22 02:29N 34°43' E 135°17'0 0.0
2018-Jun-22 01:58N 34°43' E 135°17'0 0.0
2018-Jun-22 01:30N 34°43' E 135°17'2 3.3
2018-Jun-22 01:00N 34°41' E 135°18'4 7.9
2018-Jun-22 00:30N 34°37' E 135°16'4 8.1
2018-Jun-22 00:00N 34°37' E 135°11'4 8.6
2018-Jun-21 23:30N 34°35' E 135°07'510.3
2018-Jun-21 23:00N 34°37' E 135°01'5 9.8
2018-Jun-21 22:30N 34°36' E 134°55'4 9.0
2018-Jun-21 22:00N 34°34' E 134°50'4 8.4
2018-Jun-21 21:30N 34°32' E 134°46'4 8.4
2018-Jun-21 21:00N 34°30' E 134°41'4 8.6
2018-Jun-21 20:30N 34°28' E 134°36'4 8.6
2018-Jun-21 20:00N 34°27' E 134°31'4 8.5
2018-Jun-21 19:30N 34°25' E 134°26'4 8.4
2018-Jun-21 19:00N 34°24' E 134°22'4 8.4
2018-Jun-21 18:30N 34°24' E 134°17'4 7.9
2018-Jun-21 17:59N 34°24' E 134°12'12 0.3
2018-Jun-20 07:31N 34°27' E 134°25'2 8.9
2018-Jun-20 07:18N 34°28' E 134°28'3 8.8
2018-Jun-20 07:00N 34°28' E 134°31'5 9.1
2018-Jun-20 06:30N 34°30' E 134°36'5 9.0
2018-Jun-20 06:00N 34°32' E 134°41'5 9.6
2018-Jun-20 05:28N 34°34' E 134°47'510.1
2018-Jun-20 05:00N 34°35' E 134°52'510.3
2018-Jun-20 04:30N 34°37' E 134°58'5 9.5
2018-Jun-20 04:00N 34°36' E 135°03'4 8.7
2018-Jun-20 03:30N 34°36' E 135°09'4 8.7
2018-Jun-20 03:00N 34°37' E 135°14'4 7.7
2018-Jun-20 02:30N 34°39' E 135°18'4 7.5
2018-Jun-20 02:00N 34°43' E 135°17'0 0.2
2018-Jun-20 01:30N 34°43' E 135°17'0 0.0
2018-Jun-20 01:00N 34°43' E 135°17'0 0.0
2018-Jun-20 00:30N 34°43' E 135°17'0 0.0
2018-Jun-20 00:00N 34°43' E 135°17'0 0.0
2018-Jun-19 23:29N 34°43' E 135°17'0 0.4
2018-Jun-19 23:00N 34°43' E 135°17'3 5.3
2018-Jun-19 22:30N 34°42' E 135°21'1 1.7
2018-Jun-19 21:52N 34°43' E 135°21'0 0.0
2018-Jun-19 21:30N 34°43' E 135°21'0 0.0
2018-Jun-19 21:00N 34°43' E 135°21'0 0.0
2018-Jun-19 20:30N 34°43' E 135°21'0 0.0
2018-Jun-19 20:00N 34°43' E 135°21'0 0.0
2018-Jun-19 19:30N 34°43' E 135°21'0 0.0
2018-Jun-19 19:00N 34°43' E 135°21'0 0.0
2018-Jun-19 18:30N 34°43' E 135°21'0 0.0
2018-Jun-19 18:00N 34°43' E 135°21'0 0.0
2018-Jun-19 17:30N 34°43' E 135°21'0 0.0
2018-Jun-19 16:59N 34°43' E 135°21'0 1.0
2018-Jun-19 16:30N 34°43' E 135°20'4 7.7
2018-Jun-19 16:00N 34°39' E 135°18'4 8.2
2018-Jun-19 15:30N 34°37' E 135°14'4 8.6
2018-Jun-19 15:00N 34°36' E 135°09'4 8.4
2018-Jun-19 14:30N 34°35' E 135°04'3 5.6
2018-Jun-19 13:59N 34°37' E 135°01'3 5.8
2018-Jun-19 13:30N 34°36' E 134°57'4 7.7
2018-Jun-19 13:00N 34°35' E 134°53'4 8.4
2018-Jun-19 12:30N 34°33' E 134°49'4 8.8
2018-Jun-19 12:00N 34°31' E 134°44'5 9.0
2018-Jun-19 11:28N 34°29' E 134°38'4 8.9
2018-Jun-19 11:00N 34°28' E 134°34'4 8.8
2018-Jun-19 10:30N 34°26' E 134°29'4 8.7
2018-Jun-19 09:59N 34°25' E 134°24'4 8.6
2018-Jun-19 09:30N 34°23' E 134°19'5 0.3
2018-Jun-18 16:35N 34°25' E 134°13'12 9.1
2018-Jun-18 15:13N 34°27' E 134°28'2 8.8
2018-Jun-18 15:00N 34°28' E 134°30'4 9.0
2018-Jun-18 14:30N 34°30' E 134°35'5 9.4
2018-Jun-18 14:00N 34°32' E 134°40'5 9.8
2018-Jun-18 13:30N 34°34' E 134°45'611.2
2018-Jun-18 13:00N 34°36' E 134°52'510.9
2018-Jun-18 12:30N 34°37' E 134°58'5 9.5
2018-Jun-18 12:00N 34°36' E 135°04'4 8.7
2018-Jun-18 11:30N 34°37' E 135°09'4 8.8
2018-Jun-18 11:00N 34°37' E 135°14'5 8.9
2018-Jun-18 10:29N 34°39' E 135°20'3 6.8
2018-Jun-18 10:00N 34°42' E 135°21'1 2.5
2018-Jun-18 09:27N 34°43' E 135°21'0 0.0
2018-Jun-18 08:59N 34°43' E 135°21'0 0.0
2018-Jun-18 08:27N 34°43' E 135°21'0 0.0
2018-Jun-18 07:40N 34°43' E 135°21'0 0.0
2018-Jun-18 07:17N 34°43' E 135°21'0 1.0
2018-Jun-18 07:00N 34°43' E 135°21'3 5.3
2018-Jun-18 06:30N 34°42' E 135°18'1 1.3
2018-Jun-18 06:00N 34°43' E 135°17'0 0.0
2018-Jun-18 05:30N 34°43' E 135°17'0 0.0
2018-Jun-18 04:59N 34°43' E 135°17'0 0.0
2018-Jun-18 04:30N 34°43' E 135°17'0 0.0
2018-Jun-18 04:00N 34°43' E 135°17'0 0.0
2018-Jun-18 03:29N 34°43' E 135°17'0 0.0
2018-Jun-18 03:00N 34°43' E 135°17'0 0.0
2018-Jun-18 02:30N 34°43' E 135°17'0 0.0
2018-Jun-18 02:00N 34°43' E 135°17'0 0.0
2018-Jun-18 01:30N 34°43' E 135°17'1 1.2
2018-Jun-18 01:00N 34°42' E 135°18'4 7.6
2018-Jun-18 00:30N 34°38' E 135°17'4 7.8
2018-Jun-18 00:00N 34°37' E 135°13'4 7.9
2018-Jun-17 23:30N 34°35' E 135°09'4 9.0
2018-Jun-17 23:00N 34°35' E 135°03'5 8.8
2018-Jun-17 22:29N 34°37' E 134°58'5 9.7
2018-Jun-17 22:00N 34°35' E 134°53'5 9.1
2018-Jun-17 21:30N 34°33' E 134°48'4 8.9
2018-Jun-17 21:00N 34°31' E 134°43'4 8.9
2018-Jun-17 20:30N 34°29' E 134°38'5 8.9
2018-Jun-17 20:00N 34°27' E 134°33'5 9.1
2018-Jun-17 19:30N 34°26' E 134°28'4 9.1
2018-Jun-17 19:00N 34°24' E 134°23'5 9.2
2018-Jun-17 18:26N 34°24' E 134°17'4 0.1
2018-Jun-16 13:25N 34°25' E 134°12'14 9.6
2018-Jun-16 11:59N 34°27' E 134°28'4 9.3
2018-Jun-16 11:30N 34°29' E 134°33'5 9.5
2018-Jun-16 10:57N 34°31' E 134°39'4 9.6
2018-Jun-16 10:30N 34°33' E 134°44'5 9.4
2018-Jun-16 10:00N 34°34' E 134°49'7 9.2
2018-Jun-16 09:15N 34°37' E 134°57'2 8.1
2018-Jun-16 08:58N 34°38' E 134°60'3 6.3
2018-Jun-16 08:30N 34°36' E 135°03'2 4.2
2018-Jun-16 08:00N 34°36' E 135°05'4 7.8
2018-Jun-16 07:30N 34°36' E 135°10'4 8.2
2018-Jun-16 07:00N 34°37' E 135°15'4 8.3
2018-Jun-16 06:30N 34°39' E 135°20'3 6.9
2018-Jun-16 06:00N 34°42' E 135°21'1 2.4
2018-Jun-16 05:30N 34°43' E 135°21'0 0.0
2018-Jun-16 04:58N 34°43' E 135°21'0 0.0
2018-Jun-16 04:30N 34°43' E 135°21'0 0.0
2018-Jun-16 04:00N 34°43' E 135°21'0 0.0
2018-Jun-16 03:30N 34°43' E 135°21'0 0.0
2018-Jun-16 02:59N 34°43' E 135°21'0 0.0
2018-Jun-16 02:30N 34°43' E 135°21'0 0.0
2018-Jun-16 02:00N 34°43' E 135°21'0 0.0
2018-Jun-16 01:28N 34°43' E 135°21'0 0.0
2018-Jun-16 01:00N 34°43' E 135°21'0 0.0
2018-Jun-16 00:30N 34°43' E 135°21'0 0.0
2018-Jun-16 00:00N 34°43' E 135°21'2 4.5
2018-Jun-15 23:30N 34°42' E 135°19'2 3.2
2018-Jun-15 23:00N 34°43' E 135°17'0 0.0
2018-Jun-15 22:30N 34°43' E 135°17'0 0.0
2018-Jun-15 22:00N 34°43' E 135°17'0 0.0
2018-Jun-15 21:30N 34°43' E 135°17'0 0.0
2018-Jun-15 21:00N 34°43' E 135°17'0 0.0
2018-Jun-15 20:29N 34°43' E 135°17'0 0.0
2018-Jun-15 20:00N 34°43' E 135°17'0 0.0
2018-Jun-15 19:30N 34°43' E 135°17'0 0.0
2018-Jun-15 19:00N 34°43' E 135°17'0 0.0
2018-Jun-15 18:30N 34°43' E 135°17'0 0.0
2018-Jun-15 18:00N 34°43' E 135°17'0 0.0
2018-Jun-15 17:30N 34°43' E 135°17'0 0.0
2018-Jun-15 17:00N 34°43' E 135°17'0 0.0
2018-Jun-15 16:30N 34°43' E 135°17'0 0.0
2018-Jun-15 16:00N 34°43' E 135°17'0 0.0
2018-Jun-15 15:30N 34°43' E 135°17'0 0.0
2018-Jun-15 15:00N 34°43' E 135°17'0 0.0
2018-Jun-15 14:30N 34°43' E 135°17'0 0.0
2018-Jun-15 14:00N 34°43' E 135°17'0 0.0
2018-Jun-15 13:30N 34°43' E 135°17'0 0.0
2018-Jun-15 13:00N 34°43' E 135°17'0 0.0
2018-Jun-15 12:30N 34°43' E 135°17'0 0.0
2018-Jun-15 12:00N 34°43' E 135°17'0 0.0
2018-Jun-15 11:30N 34°43' E 135°17'1 2.7
2018-Jun-15 11:00N 34°42' E 135°18'4 7.3
2018-Jun-15 10:30N 34°38' E 135°17'4 7.9
2018-Jun-15 10:00N 34°36' E 135°13'5 9.4
2018-Jun-15 09:30N 34°35' E 135°07'4 8.7
2018-Jun-15 09:00N 34°36' E 135°02'4 7.8
2018-Jun-15 08:29N 34°36' E 134°57'5 9.8
2018-Jun-15 08:00N 34°34' E 134°52'5 9.4
2018-Jun-15 07:30N 34°32' E 134°47'5 9.3
2018-Jun-15 07:00N 34°30' E 134°42'5 9.4
2018-Jun-15 06:30N 34°29' E 134°37'5 9.4
2018-Jun-15 06:00N 34°27' E 134°31'5 9.4
2018-Jun-15 05:30N 34°25' E 134°26'5 9.8
2018-Jun-15 04:59N 34°24' E 134°20'7 0.4
2018-Jun-14 12:07N 34°27' E 134°28'1 9.5
2018-Jun-14 12:00N 34°28' E 134°29'5 9.4
2018-Jun-14 11:30N 34°30' E 134°34'5 9.9
2018-Jun-14 11:00N 34°32' E 134°40'510.3
2018-Jun-14 10:30N 34°33' E 134°46'712.1
2018-Jun-14 09:57N 34°36' E 134°53'611.2
2018-Jun-14 09:27N 34°38' E 134°59'510.5
2018-Jun-14 09:00N 34°36' E 135°05'4 8.8
2018-Jun-14 08:30N 34°37' E 135°10'4 8.3
2018-Jun-14 08:00N 34°38' E 135°15'4 7.5
2018-Jun-14 07:30N 34°40' E 135°18'3 5.0
2018-Jun-14 07:00N 34°43' E 135°17'0 0.0
2018-Jun-14 06:30N 34°43' E 135°17'0 0.0
2018-Jun-14 06:00N 34°43' E 135°17'0 0.0
2018-Jun-14 05:29N 34°43' E 135°17'0 0.0
2018-Jun-14 05:00N 34°43' E 135°17'0 0.5
2018-Jun-14 04:30N 34°43' E 135°17'4 8.2
2018-Jun-14 04:00N 34°39' E 135°19'4 7.7
2018-Jun-14 03:30N 34°36' E 135°23'2 4.9
2018-Jun-14 03:00N 34°35' E 135°26'0 0.0
2018-Jun-14 02:30N 34°35' E 135°26'0 0.0
2018-Jun-14 02:00N 34°35' E 135°26'0 0.0
2018-Jun-14 01:30N 34°35' E 135°26'0 0.0
2018-Jun-14 01:00N 34°35' E 135°26'0 0.0
2018-Jun-14 00:21N 34°35' E 135°26'0 0.1
2018-Jun-13 23:45N 34°35' E 135°26'2 6.1
2018-Jun-13 23:30N 34°36' E 135°24'4 7.3
2018-Jun-13 23:00N 34°35' E 135°20'1 2.6
2018-Jun-13 22:30N 34°35' E 135°18'0 0.0
2018-Jun-13 21:59N 34°35' E 135°18'0 0.1
2018-Jun-13 21:30N 34°35' E 135°18'0 0.1
2018-Jun-13 20:58N 34°35' E 135°18'0 0.0
2018-Jun-13 20:30N 34°35' E 135°18'0 0.0
2018-Jun-13 20:00N 34°35' E 135°18'0 0.0
2018-Jun-13 19:30N 34°35' E 135°18'0 0.1
2018-Jun-13 19:00N 34°35' E 135°18'2 4.5
2018-Jun-13 18:30N 34°35' E 135°16'4 8.5
2018-Jun-13 18:00N 34°35' E 135°11'5 9.6
2018-Jun-13 17:30N 34°35' E 135°05'611.6
2018-Jun-13 17:00N 34°37' E 134°58'510.8
2018-Jun-13 16:30N 34°34' E 134°52'5 9.8
2018-Jun-13 16:00N 34°32' E 134°47'4 8.5
2018-Jun-13 15:30N 34°30' E 134°42'4 8.4
2018-Jun-13 15:00N 34°29' E 134°37'4 8.2
2018-Jun-13 14:30N 34°28' E 134°33'4 8.1
2018-Jun-13 14:00N 34°26' E 134°28'4 8.2
2018-Jun-13 13:30N 34°25' E 134°23'4 7.7
2018-Jun-13 12:58N 34°24' E 134°19'10 0.4
2018-Jun-12 12:57N 34°28' E 134°30'4 9.1
2018-Jun-12 12:30N 34°29' E 134°34'5 8.9
2018-Jun-12 11:59N 34°31' E 134°39'4 9.3
2018-Jun-12 11:30N 34°33' E 134°44'510.5
2018-Jun-12 11:00N 34°35' E 134°50'612.0
2018-Jun-12 10:30N 34°37' E 134°57'611.6
2018-Jun-12 10:00N 34°36' E 135°04'4 8.5
2018-Jun-12 09:30N 34°36' E 135°09'4 8.8
2018-Jun-12 09:00N 34°37' E 135°14'4 8.6
2018-Jun-12 08:30N 34°37' E 135°20'4 8.2
2018-Jun-12 08:00N 34°36' E 135°24'1 2.7
2018-Jun-12 07:30N 34°35' E 135°26'0 0.0
2018-Jun-12 07:00N 34°35' E 135°26'0 0.0
2018-Jun-12 06:30N 34°35' E 135°26'0 0.0
2018-Jun-12 06:00N 34°35' E 135°26'0 0.0
2018-Jun-12 05:30N 34°35' E 135°26'0 0.0
2018-Jun-12 04:59N 34°35' E 135°26'0 0.8
2018-Jun-12 04:29N 34°35' E 135°25'4 7.9
2018-Jun-12 04:00N 34°36' E 135°21'4 8.1
2018-Jun-12 03:30N 34°40' E 135°19'3 6.9
2018-Jun-12 03:00N 34°43' E 135°21'  
Track history (hours):
 
Tides and Currents Weather Stations Pressure Air Temp Water Temp Dewpoint Dewpoint Depression Visibility Wind Speed Wind Dir Waves Ship Positions

Kiyomaru

Last reported at 2018-Jun-22 03:00 UTC. Time now 2018-Jun-22 03:05 UTC.
Position N 34°43' E 135°17'.

Length 121 m; draft 4 m.

Type: Cargo ship. MMSI: 431400386.

Date/timePositionNaut miles runAvg speedWind from/ knotsBaromVisibWave heightAir tempDewpointWater temp
2018-Jun-22 03:00N 34°43' E 135°17'0 0.0
2018-Jun-22 02:29N 34°43' E 135°17'0 0.0
2018-Jun-22 01:58N 34°43' E 135°17'0 0.0
2018-Jun-22 01:30N 34°43' E 135°17'2 3.3
2018-Jun-22 01:00N 34°41' E 135°18'4 7.9
2018-Jun-22 00:30N 34°37' E 135°16'4 8.1
2018-Jun-22 00:00N 34°37' E 135°11'4 8.6
2018-Jun-21 23:30N 34°35' E 135°07'510.3
2018-Jun-21 23:00N 34°37' E 135°01'5 9.8
2018-Jun-21 22:30N 34°36' E 134°55'4 9.0
2018-Jun-21 22:00N 34°34' E 134°50'4 8.4
2018-Jun-21 21:30N 34°32' E 134°46'4 8.4
2018-Jun-21 21:00N 34°30' E 134°41'4 8.6
2018-Jun-21 20:30N 34°28' E 134°36'4 8.6
2018-Jun-21 20:00N 34°27' E 134°31'4 8.5
2018-Jun-21 19:30N 34°25' E 134°26'4 8.4
2018-Jun-21 19:00N 34°24' E 134°22'4 8.4
2018-Jun-21 18:30N 34°24' E 134°17'4 7.9
2018-Jun-21 17:59N 34°24' E 134°12'12 0.3
2018-Jun-20 07:31N 34°27' E 134°25'2 8.9
2018-Jun-20 07:18N 34°28' E 134°28'3 8.8
2018-Jun-20 07:00N 34°28' E 134°31'5 9.1
2018-Jun-20 06:30N 34°30' E 134°36'5 9.0
2018-Jun-20 06:00N 34°32' E 134°41'5 9.6
2018-Jun-20 05:28N 34°34' E 134°47'510.1
2018-Jun-20 05:00N 34°35' E 134°52'510.3
2018-Jun-20 04:30N 34°37' E 134°58'5 9.5
2018-Jun-20 04:00N 34°36' E 135°03'4 8.7
2018-Jun-20 03:30N 34°36' E 135°09'4 8.7
2018-Jun-20 03:00N 34°37' E 135°14'4 7.7
2018-Jun-20 02:30N 34°39' E 135°18'4 7.5
2018-Jun-20 02:00N 34°43' E 135°17'0 0.2
2018-Jun-20 01:30N 34°43' E 135°17'0 0.0
2018-Jun-20 01:00N 34°43' E 135°17'0 0.0
2018-Jun-20 00:30N 34°43' E 135°17'0 0.0
2018-Jun-20 00:00N 34°43' E 135°17'0 0.0
2018-Jun-19 23:29N 34°43' E 135°17'0 0.4
2018-Jun-19 23:00N 34°43' E 135°17'3 5.3
2018-Jun-19 22:30N 34°42' E 135°21'1 1.7
2018-Jun-19 21:52N 34°43' E 135°21'0 0.0
2018-Jun-19 21:30N 34°43' E 135°21'0 0.0
2018-Jun-19 21:00N 34°43' E 135°21'0 0.0
2018-Jun-19 20:30N 34°43' E 135°21'0 0.0
2018-Jun-19 20:00N 34°43' E 135°21'0 0.0
2018-Jun-19 19:30N 34°43' E 135°21'0 0.0
2018-Jun-19 19:00N 34°43' E 135°21'0 0.0
2018-Jun-19 18:30N 34°43' E 135°21'0 0.0
2018-Jun-19 18:00N 34°43' E 135°21'0 0.0
2018-Jun-19 17:30N 34°43' E 135°21'0 0.0
2018-Jun-19 16:59N 34°43' E 135°21'0 1.0
2018-Jun-19 16:30N 34°43' E 135°20'4 7.7
2018-Jun-19 16:00N 34°39' E 135°18'4 8.2
2018-Jun-19 15:30N 34°37' E 135°14'4 8.6
2018-Jun-19 15:00N 34°36' E 135°09'4 8.4
2018-Jun-19 14:30N 34°35' E 135°04'3 5.6
2018-Jun-19 13:59N 34°37' E 135°01'3 5.8
2018-Jun-19 13:30N 34°36' E 134°57'4 7.7
2018-Jun-19 13:00N 34°35' E 134°53'4 8.4
2018-Jun-19 12:30N 34°33' E 134°49'4 8.8
2018-Jun-19 12:00N 34°31' E 134°44'5 9.0
2018-Jun-19 11:28N 34°29' E 134°38'4 8.9
2018-Jun-19 11:00N 34°28' E 134°34'4 8.8
2018-Jun-19 10:30N 34°26' E 134°29'4 8.7
2018-Jun-19 09:59N 34°25' E 134°24'4 8.6
2018-Jun-19 09:30N 34°23' E 134°19'5 0.3
2018-Jun-18 16:35N 34°25' E 134°13'12 9.1
2018-Jun-18 15:13N 34°27' E 134°28'2 8.8
2018-Jun-18 15:00N 34°28' E 134°30'4 9.0
2018-Jun-18 14:30N 34°30' E 134°35'5 9.4
2018-Jun-18 14:00N 34°32' E 134°40'5 9.8
2018-Jun-18 13:30N 34°34' E 134°45'611.2
2018-Jun-18 13:00N 34°36' E 134°52'510.9
2018-Jun-18 12:30N 34°37' E 134°58'5 9.5
2018-Jun-18 12:00N 34°36' E 135°04'4 8.7
2018-Jun-18 11:30N 34°37' E 135°09'4 8.8
2018-Jun-18 11:00N 34°37' E 135°14'5 8.9
2018-Jun-18 10:29N 34°39' E 135°20'3 6.8
2018-Jun-18 10:00N 34°42' E 135°21'1 2.5
2018-Jun-18 09:27N 34°43' E 135°21'0 0.0
2018-Jun-18 08:59N 34°43' E 135°21'0 0.0
2018-Jun-18 08:27N 34°43' E 135°21'0 0.0
2018-Jun-18 07:40N 34°43' E 135°21'0 0.0
2018-Jun-18 07:17N 34°43' E 135°21'0 1.0
2018-Jun-18 07:00N 34°43' E 135°21'3 5.3
2018-Jun-18 06:30N 34°42' E 135°18'1 1.3
2018-Jun-18 06:00N 34°43' E 135°17'0 0.0
2018-Jun-18 05:30N 34°43' E 135°17'0 0.0
2018-Jun-18 04:59N 34°43' E 135°17'0 0.0
2018-Jun-18 04:30N 34°43' E 135°17'0 0.0
2018-Jun-18 04:00N 34°43' E 135°17'0 0.0
2018-Jun-18 03:29N 34°43' E 135°17'0 0.0
2018-Jun-18 03:00N 34°43' E 135°17'0 0.0
2018-Jun-18 02:30N 34°43' E 135°17'0 0.0
2018-Jun-18 02:00N 34°43' E 135°17'0 0.0
2018-Jun-18 01:30N 34°43' E 135°17'1 1.2
2018-Jun-18 01:00N 34°42' E 135°18'4 7.6
2018-Jun-18 00:30N 34°38' E 135°17'4 7.8
2018-Jun-18 00:00N 34°37' E 135°13'4 7.9
2018-Jun-17 23:30N 34°35' E 135°09'4 9.0
2018-Jun-17 23:00N 34°35' E 135°03'5 8.8
2018-Jun-17 22:29N 34°37' E 134°58'5 9.7
2018-Jun-17 22:00N 34°35' E 134°53'5 9.1
2018-Jun-17 21:30N 34°33' E 134°48'4 8.9
2018-Jun-17 21:00N 34°31' E 134°43'4 8.9
2018-Jun-17 20:30N 34°29' E 134°38'5 8.9
2018-Jun-17 20:00N 34°27' E 134°33'5 9.1
2018-Jun-17 19:30N 34°26' E 134°28'4 9.1
2018-Jun-17 19:00N 34°24' E 134°23'5 9.2
2018-Jun-17 18:26N 34°24' E 134°17'4 0.1
2018-Jun-16 13:25N 34°25' E 134°12'14 9.6
2018-Jun-16 11:59N 34°27' E 134°28'4 9.3
2018-Jun-16 11:30N 34°29' E 134°33'5 9.5
2018-Jun-16 10:57N 34°31' E 134°39'4 9.6
2018-Jun-16 10:30N 34°33' E 134°44'5 9.4
2018-Jun-16 10:00N 34°34' E 134°49'7 9.2
2018-Jun-16 09:15N 34°37' E 134°57'2 8.1
2018-Jun-16 08:58N 34°38' E 134°60'3 6.3
2018-Jun-16 08:30N 34°36' E 135°03'2 4.2
2018-Jun-16 08:00N 34°36' E 135°05'4 7.8
2018-Jun-16 07:30N 34°36' E 135°10'4 8.2
2018-Jun-16 07:00N 34°37' E 135°15'4 8.3
2018-Jun-16 06:30N 34°39' E 135°20'3 6.9
2018-Jun-16 06:00N 34°42' E 135°21'1 2.4
2018-Jun-16 05:30N 34°43' E 135°21'0 0.0
2018-Jun-16 04:58N 34°43' E 135°21'0 0.0
2018-Jun-16 04:30N 34°43' E 135°21'0 0.0
2018-Jun-16 04:00N 34°43' E 135°21'0 0.0
2018-Jun-16 03:30N 34°43' E 135°21'0 0.0
2018-Jun-16 02:59N 34°43' E 135°21'0 0.0
2018-Jun-16 02:30N 34°43' E 135°21'0 0.0
2018-Jun-16 02:00N 34°43' E 135°21'0 0.0
2018-Jun-16 01:28N 34°43' E 135°21'0 0.0
2018-Jun-16 01:00N 34°43' E 135°21'0 0.0
2018-Jun-16 00:30N 34°43' E 135°21'0 0.0
2018-Jun-16 00:00N 34°43' E 135°21'2 4.5
2018-Jun-15 23:30N 34°42' E 135°19'2 3.2
2018-Jun-15 23:00N 34°43' E 135°17'0 0.0
2018-Jun-15 22:30N 34°43' E 135°17'0 0.0
2018-Jun-15 22:00N 34°43' E 135°17'0 0.0
2018-Jun-15 21:30N 34°43' E 135°17'0 0.0
2018-Jun-15 21:00N 34°43' E 135°17'0 0.0
2018-Jun-15 20:29N 34°43' E 135°17'0 0.0
2018-Jun-15 20:00N 34°43' E 135°17'0 0.0
2018-Jun-15 19:30N 34°43' E 135°17'0 0.0
2018-Jun-15 19:00N 34°43' E 135°17'0 0.0
2018-Jun-15 18:30N 34°43' E 135°17'0 0.0
2018-Jun-15 18:00N 34°43' E 135°17'0 0.0
2018-Jun-15 17:30N 34°43' E 135°17'0 0.0
2018-Jun-15 17:00N 34°43' E 135°17'0 0.0
2018-Jun-15 16:30N 34°43' E 135°17'0 0.0
2018-Jun-15 16:00N 34°43' E 135°17'0 0.0
2018-Jun-15 15:30N 34°43' E 135°17'0 0.0
2018-Jun-15 15:00N 34°43' E 135°17'0 0.0
2018-Jun-15 14:30N 34°43' E 135°17'0 0.0
2018-Jun-15 14:00N 34°43' E 135°17'0 0.0
2018-Jun-15 13:30N 34°43' E 135°17'0 0.0
2018-Jun-15 13:00N 34°43' E 135°17'0 0.0
2018-Jun-15 12:30N 34°43' E 135°17'0 0.0
2018-Jun-15 12:00N 34°43' E 135°17'0 0.0
2018-Jun-15 11:30N 34°43' E 135°17'1 2.7
2018-Jun-15 11:00N 34°42' E 135°18'4 7.3
2018-Jun-15 10:30N 34°38' E 135°17'4 7.9
2018-Jun-15 10:00N 34°36' E 135°13'5 9.4
2018-Jun-15 09:30N 34°35' E 135°07'4 8.7
2018-Jun-15 09:00N 34°36' E 135°02'4 7.8
2018-Jun-15 08:29N 34°36' E 134°57'5 9.8
2018-Jun-15 08:00N 34°34' E 134°52'5 9.4
2018-Jun-15 07:30N 34°32' E 134°47'5 9.3
2018-Jun-15 07:00N 34°30' E 134°42'5 9.4
2018-Jun-15 06:30N 34°29' E 134°37'5 9.4
2018-Jun-15 06:00N 34°27' E 134°31'5 9.4
2018-Jun-15 05:30N 34°25' E 134°26'5 9.8
2018-Jun-15 04:59N 34°24' E 134°20'7 0.4
2018-Jun-14 12:07N 34°27' E 134°28'1 9.5
2018-Jun-14 12:00N 34°28' E 134°29'5 9.4
2018-Jun-14 11:30N 34°30' E 134°34'5 9.9
2018-Jun-14 11:00N 34°32' E 134°40'510.3
2018-Jun-14 10:30N 34°33' E 134°46'712.1
2018-Jun-14 09:57N 34°36' E 134°53'611.2
2018-Jun-14 09:27N 34°38' E 134°59'510.5
2018-Jun-14 09:00N 34°36' E 135°05'4 8.8
2018-Jun-14 08:30N 34°37' E 135°10'4 8.3
2018-Jun-14 08:00N 34°38' E 135°15'4 7.5
2018-Jun-14 07:30N 34°40' E 135°18'3 5.0
2018-Jun-14 07:00N 34°43' E 135°17'0 0.0
2018-Jun-14 06:30N 34°43' E 135°17'0 0.0
2018-Jun-14 06:00N 34°43' E 135°17'0 0.0
2018-Jun-14 05:29N 34°43' E 135°17'0 0.0
2018-Jun-14 05:00N 34°43' E 135°17'0 0.5
2018-Jun-14 04:30N 34°43' E 135°17'4 8.2
2018-Jun-14 04:00N 34°39' E 135°19'4 7.7
2018-Jun-14 03:30N 34°36' E 135°23'2 4.9
2018-Jun-14 03:00N 34°35' E 135°26'0 0.0
2018-Jun-14 02:30N 34°35' E 135°26'0 0.0
2018-Jun-14 02:00N 34°35' E 135°26'0 0.0
2018-Jun-14 01:30N 34°35' E 135°26'0 0.0
2018-Jun-14 01:00N 34°35' E 135°26'0 0.0
2018-Jun-14 00:21N 34°35' E 135°26'0 0.1
2018-Jun-13 23:45N 34°35' E 135°26'2 6.1
2018-Jun-13 23:30N 34°36' E 135°24'4 7.3
2018-Jun-13 23:00N 34°35' E 135°20'1 2.6
2018-Jun-13 22:30N 34°35' E 135°18'0 0.0
2018-Jun-13 21:59N 34°35' E 135°18'0 0.1
2018-Jun-13 21:30N 34°35' E 135°18'0 0.1
2018-Jun-13 20:58N 34°35' E 135°18'0 0.0
2018-Jun-13 20:30N 34°35' E 135°18'0 0.0
2018-Jun-13 20:00N 34°35' E 135°18'0 0.0
2018-Jun-13 19:30N 34°35' E 135°18'0 0.1
2018-Jun-13 19:00N 34°35' E 135°18'2 4.5
2018-Jun-13 18:30N 34°35' E 135°16'4 8.5
2018-Jun-13 18:00N 34°35' E 135°11'5 9.6
2018-Jun-13 17:30N 34°35' E 135°05'611.6
2018-Jun-13 17:00N 34°37' E 134°58'510.8
2018-Jun-13 16:30N 34°34' E 134°52'5 9.8
2018-Jun-13 16:00N 34°32' E 134°47'4 8.5
2018-Jun-13 15:30N 34°30' E 134°42'4 8.4
2018-Jun-13 15:00N 34°29' E 134°37'4 8.2
2018-Jun-13 14:30N 34°28' E 134°33'4 8.1
2018-Jun-13 14:00N 34°26' E 134°28'4 8.2
2018-Jun-13 13:30N 34°25' E 134°23'4 7.7
2018-Jun-13 12:58N 34°24' E 134°19'10 0.4
2018-Jun-12 12:57N 34°28' E 134°30'4 9.1
2018-Jun-12 12:30N 34°29' E 134°34'5 8.9
2018-Jun-12 11:59N 34°31' E 134°39'4 9.3
2018-Jun-12 11:30N 34°33' E 134°44'510.5
2018-Jun-12 11:00N 34°35' E 134°50'612.0
2018-Jun-12 10:30N 34°37' E 134°57'611.6
2018-Jun-12 10:00N 34°36' E 135°04'4 8.5
2018-Jun-12 09:30N 34°36' E 135°09'4 8.8
2018-Jun-12 09:00N 34°37' E 135°14'4 8.6
2018-Jun-12 08:30N 34°37' E 135°20'4 8.2
2018-Jun-12 08:00N 34°36' E 135°24'1 2.7
2018-Jun-12 07:30N 34°35' E 135°26'0 0.0
2018-Jun-12 07:00N 34°35' E 135°26'0 0.0
2018-Jun-12 06:30N 34°35' E 135°26'0 0.0
2018-Jun-12 06:00N 34°35' E 135°26'0 0.0
2018-Jun-12 05:30N 34°35' E 135°26'0 0.0
2018-Jun-12 04:59N 34°35' E 135°26'0 0.8
2018-Jun-12 04:29N 34°35' E 135°25'4 7.9
2018-Jun-12 04:00N 34°36' E 135°21'4 8.1
2018-Jun-12 03:30N 34°40' E 135°19'3 6.9
2018-Jun-12 03:00N 34°43' E 135°21'  

Dump ship's entire track history